sensor_id;sensor_type;location;lat;lon;timestamp;pressure;altitude;pressure_sealevel;temperature;humidity
29815;BME280;16708;50.426;7.664;2023-04-02T00:05:10;978.50;;;7.60;100.00
29815;BME280;16708;50.426;7.664;2023-04-02T00:10:04;978.48;;;7.51;100.00
29815;BME280;16708;50.426;7.664;2023-04-02T00:14:58;978.51;;;7.48;100.00
29815;BME280;16708;50.426;7.664;2023-04-02T00:19:53;978.59;;;7.47;100.00
29815;BME280;16708;50.426;7.664;2023-04-02T00:24:47;978.62;;;7.48;100.00
29815;BME280;16708;50.426;7.664;2023-04-02T00:29:40;978.73;;;7.53;100.00
29815;BME280;16708;50.426;7.664;2023-04-02T00:34:34;978.81;;;7.50;100.00
29815;BME280;16708;50.426;7.664;2023-04-02T00:44:22;978.80;;;7.56;100.00
29815;BME280;16708;50.426;7.664;2023-04-02T00:49:13;978.89;;;7.54;100.00
29815;BME280;16708;50.426;7.664;2023-04-02T00:54:08;978.90;;;7.43;100.00
29815;BME280;16708;50.426;7.664;2023-04-02T01:13:41;979.06;;;7.56;100.00
29815;BME280;16708;50.426;7.664;2023-04-02T01:23:30;979.13;;;7.62;100.00
29815;BME280;16708;50.426;7.664;2023-04-02T01:28:24;979.12;;;7.58;100.00
29815;BME280;16708;50.426;7.664;2023-04-02T01:33:17;979.15;;;7.60;100.00
29815;BME280;16708;50.426;7.664;2023-04-02T01:43:05;979.36;;;7.49;100.00
29815;BME280;16708;50.426;7.664;2023-04-02T01:48:00;979.40;;;7.54;100.00
29815;BME280;16708;50.426;7.664;2023-04-02T01:52:53;979.50;;;7.61;100.00
29815;BME280;16708;50.426;7.664;2023-04-02T01:57:47;979.48;;;7.67;100.00
29815;BME280;16708;50.426;7.664;2023-04-02T02:02:38;979.56;;;7.64;100.00
29815;BME280;16708;50.426;7.664;2023-04-02T02:07:32;979.64;;;7.60;100.00
29815;BME280;16708;50.426;7.664;2023-04-02T02:12:27;979.67;;;7.63;100.00
29815;BME280;16708;50.426;7.664;2023-04-02T02:17:21;979.70;;;7.51;100.00
29815;BME280;16708;50.426;7.664;2023-04-02T02:22:15;979.84;;;7.45;100.00
29815;BME280;16708;50.426;7.664;2023-04-02T02:27:09;980.00;;;7.44;100.00
29815;BME280;16708;50.426;7.664;2023-04-02T02:32:03;979.96;;;7.46;100.00
29815;BME280;16708;50.426;7.664;2023-04-02T02:36:57;980.13;;;7.48;100.00
29815;BME280;16708;50.426;7.664;2023-04-02T02:41:51;980.20;;;7.45;100.00
29815;BME280;16708;50.426;7.664;2023-04-02T02:46:46;980.29;;;7.39;100.00
29815;BME280;16708;50.426;7.664;2023-04-02T02:51:39;980.33;;;7.42;100.00
29815;BME280;16708;50.426;7.664;2023-04-02T02:56:34;980.34;;;7.39;100.00
29815;BME280;16708;50.426;7.664;2023-04-02T03:01:28;980.48;;;7.40;100.00
29815;BME280;16708;50.426;7.664;2023-04-02T03:06:22;980.50;;;7.41;100.00
29815;BME280;16708;50.426;7.664;2023-04-02T03:11:16;980.55;;;7.41;100.00
29815;BME280;16708;50.426;7.664;2023-04-02T03:16:10;980.72;;;7.40;100.00
29815;BME280;16708;50.426;7.664;2023-04-02T03:21:06;980.78;;;7.36;100.00
29815;BME280;16708;50.426;7.664;2023-04-02T03:30:50;980.95;;;7.30;100.00
29815;BME280;16708;50.426;7.664;2023-04-02T03:35:44;981.01;;;7.31;100.00
29815;BME280;16708;50.426;7.664;2023-04-02T03:40:38;981.08;;;7.30;100.00
29815;BME280;16708;50.426;7.664;2023-04-02T03:45:32;981.08;;;7.21;100.00
29815;BME280;16708;50.426;7.664;2023-04-02T03:50:26;981.16;;;7.12;100.00
29815;BME280;16708;50.426;7.664;2023-04-02T03:55:23;981.24;;;7.00;100.00
29815;BME280;16708;50.426;7.664;2023-04-02T04:00:14;981.37;;;7.01;100.00
29815;BME280;16708;50.426;7.664;2023-04-02T04:05:08;981.42;;;7.04;100.00
29815;BME280;16708;50.426;7.664;2023-04-02T04:10:02;981.53;;;7.06;100.00
29815;BME280;16708;50.426;7.664;2023-04-02T04:14:54;981.56;;;7.06;100.00
29815;BME280;16708;50.426;7.664;2023-04-02T04:24:41;981.74;;;6.98;100.00
29815;BME280;16708;50.426;7.664;2023-04-02T04:34:28;981.84;;;6.93;100.00
29815;BME280;16708;50.426;7.664;2023-04-02T04:44:16;982.08;;;6.90;100.00
29815;BME280;16708;50.426;7.664;2023-04-02T04:49:13;982.24;;;6.89;100.00
29815;BME280;16708;50.426;7.664;2023-04-02T04:54:02;982.29;;;6.91;100.00
29815;BME280;16708;50.426;7.664;2023-04-02T04:58:56;982.43;;;7.07;100.00
29815;BME280;16708;50.426;7.664;2023-04-02T05:03:50;982.46;;;7.12;100.00
29815;BME280;16708;50.426;7.664;2023-04-02T05:08:44;982.60;;;7.17;100.00
29815;BME280;16708;50.426;7.664;2023-04-02T05:13:38;982.63;;;7.14;100.00
29815;BME280;16708;50.426;7.664;2023-04-02T05:18:33;982.67;;;7.23;100.00
29815;BME280;16708;50.426;7.664;2023-04-02T05:28:22;982.88;;;7.36;100.00
29815;BME280;16708;50.426;7.664;2023-04-02T05:33:12;983.01;;;7.38;100.00
29815;BME280;16708;50.426;7.664;2023-04-02T05:42:59;983.14;;;7.32;100.00
29815;BME280;16708;50.426;7.664;2023-04-02T05:52:47;983.28;;;7.53;100.00
29815;BME280;16708;50.426;7.664;2023-04-02T05:57:41;983.32;;;7.67;100.00
29815;BME280;16708;50.426;7.664;2023-04-02T06:02:34;983.23;;;7.72;100.00
29815;BME280;16708;50.426;7.664;2023-04-02T06:07:28;983.39;;;7.97;100.00
29815;BME280;16708;50.426;7.664;2023-04-02T06:12:25;983.52;;;8.04;100.00
29815;BME280;16708;50.426;7.664;2023-04-02T06:17:16;983.53;;;8.00;100.00
29815;BME280;16708;50.426;7.664;2023-04-02T06:22:10;983.64;;;8.23;100.00
29815;BME280;16708;50.426;7.664;2023-04-02T06:27:05;983.74;;;8.41;100.00
29815;BME280;16708;50.426;7.664;2023-04-02T06:31:58;983.81;;;8.54;100.00
29815;BME280;16708;50.426;7.664;2023-04-02T06:36:52;983.96;;;8.49;100.00
29815;BME280;16708;50.426;7.664;2023-04-02T06:41:46;983.98;;;8.21;100.00
29815;BME280;16708;50.426;7.664;2023-04-02T06:46:40;984.03;;;8.24;100.00
29815;BME280;16708;50.426;7.664;2023-04-02T06:51:34;984.12;;;8.25;100.00
29815;BME280;16708;50.426;7.664;2023-04-02T06:56:28;984.33;;;8.17;100.00
29815;BME280;16708;50.426;7.664;2023-04-02T07:01:22;984.47;;;7.86;100.00
29815;BME280;16708;50.426;7.664;2023-04-02T07:06:14;984.50;;;8.02;100.00
29815;BME280;16708;50.426;7.664;2023-04-02T07:11:08;984.71;;;7.84;100.00
29815;BME280;16708;50.426;7.664;2023-04-02T07:16:03;984.69;;;7.76;100.00
29815;BME280;16708;50.426;7.664;2023-04-02T07:20:56;984.76;;;7.61;100.00
29815;BME280;16708;50.426;7.664;2023-04-02T07:25:50;984.88;;;7.94;100.00
29815;BME280;16708;50.426;7.664;2023-04-02T07:30:44;985.00;;;7.70;100.00
29815;BME280;16708;50.426;7.664;2023-04-02T07:35:38;985.17;;;7.58;100.00
29815;BME280;16708;50.426;7.664;2023-04-02T07:40:32;985.19;;;7.51;100.00
29815;BME280;16708;50.426;7.664;2023-04-02T07:45:27;985.44;;;7.39;100.00
29815;BME280;16708;50.426;7.664;2023-04-02T07:50:20;985.51;;;7.49;100.00
29815;BME280;16708;50.426;7.664;2023-04-02T07:55:13;985.61;;;7.50;100.00
29815;BME280;16708;50.426;7.664;2023-04-02T08:00:07;985.73;;;7.35;100.00
29815;BME280;16708;50.426;7.664;2023-04-02T08:05:01;985.74;;;7.34;100.00
29815;BME280;16708;50.426;7.664;2023-04-02T08:09:55;985.88;;;7.39;100.00
29815;BME280;16708;50.426;7.664;2023-04-02T08:14:47;986.08;;;7.25;100.00
29815;BME280;16708;50.426;7.664;2023-04-02T08:19:41;986.21;;;7.20;100.00
29815;BME280;16708;50.426;7.664;2023-04-02T08:24:35;986.35;;;7.03;100.00
29815;BME280;16708;50.426;7.664;2023-04-02T08:29:29;986.35;;;7.17;100.00
29815;BME280;16708;50.426;7.664;2023-04-02T08:34:23;986.44;;;7.28;100.00
29815;BME280;16708;50.426;7.664;2023-04-02T08:39:18;986.58;;;7.49;100.00
29815;BME280;16708;50.426;7.664;2023-04-02T08:49:06;986.72;;;7.58;100.00
29815;BME280;16708;50.426;7.664;2023-04-02T08:54:01;986.85;;;7.48;100.00
29815;BME280;16708;50.426;7.664;2023-04-02T08:58:55;986.98;;;7.31;100.00
29815;BME280;16708;50.426;7.664;2023-04-02T09:03:49;987.04;;;7.25;100.00
29815;BME280;16708;50.426;7.664;2023-04-02T09:08:43;987.25;;;7.22;100.00
29815;BME280;16708;50.426;7.664;2023-04-02T09:23:25;987.62;;;6.80;100.00
29815;BME280;16708;50.426;7.664;2023-04-02T09:28:19;987.59;;;7.13;100.00
29815;BME280;16708;50.426;7.664;2023-04-02T09:33:13;987.66;;;7.29;100.00
29815;BME280;16708;50.426;7.664;2023-04-02T09:57:40;988.04;;;7.63;100.00
29815;BME280;16708;50.426;7.664;2023-04-02T10:02:34;988.16;;;7.85;100.00
29815;BME280;16708;50.426;7.664;2023-04-02T10:12:22;988.47;;;7.63;100.00
29815;BME280;16708;50.426;7.664;2023-04-02T10:17:15;988.61;;;7.72;100.00
29815;BME280;16708;50.426;7.664;2023-04-02T10:31:57;988.81;;;7.37;100.00
29815;BME280;16708;50.426;7.664;2023-04-02T10:36:51;988.96;;;7.44;100.00
29815;BME280;16708;50.426;7.664;2023-04-02T10:41:43;988.97;;;7.30;100.00
29815;BME280;16708;50.426;7.664;2023-04-02T10:51:31;989.20;;;6.89;100.00
29815;BME280;16708;50.426;7.664;2023-04-02T11:06:11;989.46;;;7.47;100.00
29815;BME280;16708;50.426;7.664;2023-04-02T11:11:05;989.59;;;8.18;100.00
29815;BME280;16708;50.426;7.664;2023-04-02T11:20:55;989.75;;;8.08;100.00
29815;BME280;16708;50.426;7.664;2023-04-02T11:25:49;989.93;;;8.03;100.00
29815;BME280;16708;50.426;7.664;2023-04-02T11:45:23;990.04;;;8.20;100.00
29815;BME280;16708;50.426;7.664;2023-04-02T12:09:54;990.41;;;8.32;100.00
29815;BME280;16708;50.426;7.664;2023-04-02T12:14:47;990.48;;;7.62;100.00
29815;BME280;16708;50.426;7.664;2023-04-02T12:19:40;990.57;;;7.47;100.00
29815;BME280;16708;50.426;7.664;2023-04-02T12:24:35;990.58;;;7.69;100.00
29815;BME280;16708;50.426;7.664;2023-04-02T12:34:23;990.76;;;8.00;100.00
29815;BME280;16708;50.426;7.664;2023-04-02T12:44:10;990.89;;;7.47;100.00
29815;BME280;16708;50.426;7.664;2023-04-02T12:49:05;990.90;;;7.78;100.00
29815;BME280;16708;50.426;7.664;2023-04-02T12:54:00;991.10;;;8.02;100.00
29815;BME280;16708;50.426;7.664;2023-04-02T13:03:48;991.11;;;7.60;100.00
29815;BME280;16708;50.426;7.664;2023-04-02T13:08:42;991.20;;;7.54;100.00
29815;BME280;16708;50.426;7.664;2023-04-02T13:13:37;991.25;;;7.04;100.00
29815;BME280;16708;50.426;7.664;2023-04-02T13:23:25;991.36;;;6.90;100.00
29815;BME280;16708;50.426;7.664;2023-04-02T13:33:13;991.42;;;6.95;100.00
29815;BME280;16708;50.426;7.664;2023-04-02T13:38:07;991.46;;;7.04;100.00
29815;BME280;16708;50.426;7.664;2023-04-02T13:43:01;991.47;;;7.02;100.00
29815;BME280;16708;50.426;7.664;2023-04-02T13:47:55;991.62;;;7.13;100.00
29815;BME280;16708;50.426;7.664;2023-04-02T13:52:49;991.68;;;6.79;100.00
29815;BME280;16708;50.426;7.664;2023-04-02T13:57:43;991.63;;;6.78;100.00
29815;BME280;16708;50.426;7.664;2023-04-02T14:02:37;991.68;;;7.02;100.00
29815;BME280;16708;50.426;7.664;2023-04-02T14:22:13;991.92;;;7.11;100.00
29815;BME280;16708;50.426;7.664;2023-04-02T14:27:07;992.12;;;6.94;100.00
29815;BME280;16708;50.426;7.664;2023-04-02T14:32:01;992.13;;;6.92;100.00
29815;BME280;16708;50.426;7.664;2023-04-02T14:41:50;992.19;;;6.89;100.00
29815;BME280;16708;50.426;7.664;2023-04-02T14:46:44;992.21;;;6.98;100.00
29815;BME280;16708;50.426;7.664;2023-04-02T14:51:39;992.24;;;6.61;100.00
29815;BME280;16708;50.426;7.664;2023-04-02T14:56:33;992.34;;;6.75;100.00
29815;BME280;16708;50.426;7.664;2023-04-02T15:01:28;992.46;;;6.66;100.00
29815;BME280;16708;50.426;7.664;2023-04-02T15:06:21;992.54;;;6.81;100.00
29815;BME280;16708;50.426;7.664;2023-04-02T15:11:16;992.54;;;6.85;100.00
29815;BME280;16708;50.426;7.664;2023-04-02T15:16:10;992.62;;;6.65;100.00
29815;BME280;16708;50.426;7.664;2023-04-02T15:25:59;992.75;;;6.54;100.00
29815;BME280;16708;50.426;7.664;2023-04-02T15:45:37;993.01;;;6.50;100.00
29815;BME280;16708;50.426;7.664;2023-04-02T16:00:19;993.23;;;6.38;100.00
29815;BME280;16708;50.426;7.664;2023-04-02T16:05:13;993.28;;;6.46;100.00
29815;BME280;16708;50.426;7.664;2023-04-02T16:14:59;993.50;;;6.09;100.00
29815;BME280;16708;50.426;7.664;2023-04-02T16:24:47;993.74;;;5.81;100.00
29815;BME280;16708;50.426;7.664;2023-04-02T16:39:30;993.97;;;5.74;100.00
29815;BME280;16708;50.426;7.664;2023-04-02T17:13:44;994.50;;;4.92;100.00
29815;BME280;16708;50.426;7.664;2023-04-02T17:18:38;994.68;;;5.85;100.00
29815;BME280;16708;50.426;7.664;2023-04-02T17:23:33;994.75;;;5.31;100.00
29815;BME280;16708;50.426;7.664;2023-04-02T17:28:27;994.81;;;5.06;100.00
29815;BME280;16708;50.426;7.664;2023-04-02T17:43:07;994.97;;;4.63;100.00
29815;BME280;16708;50.426;7.664;2023-04-02T17:52:54;995.10;;;4.44;100.00
29815;BME280;16708;50.426;7.664;2023-04-02T18:07:35;995.43;;;4.69;100.00
29815;BME280;16708;50.426;7.664;2023-04-02T18:17:24;995.63;;;4.54;100.00
29815;BME280;16708;50.426;7.664;2023-04-02T18:27:12;995.74;;;4.58;100.00
29815;BME280;16708;50.426;7.664;2023-04-02T18:41:55;995.98;;;4.52;100.00
29815;BME280;16708;50.426;7.664;2023-04-02T18:51:43;996.10;;;4.47;100.00
29815;BME280;16708;50.426;7.664;2023-04-02T18:56:37;996.16;;;4.43;100.00
29815;BME280;16708;50.426;7.664;2023-04-02T19:01:30;996.27;;;4.46;100.00
29815;BME280;16708;50.426;7.664;2023-04-02T19:06:23;996.40;;;4.40;100.00
29815;BME280;16708;50.426;7.664;2023-04-02T19:16:13;996.51;;;4.31;100.00
29815;BME280;16708;50.426;7.664;2023-04-02T19:30:51;996.78;;;4.24;100.00
29815;BME280;16708;50.426;7.664;2023-04-02T19:40:39;996.78;;;4.05;100.00
29815;BME280;16708;50.426;7.664;2023-04-02T19:45:33;996.85;;;4.06;100.00
29815;BME280;16708;50.426;7.664;2023-04-02T19:50:27;996.90;;;4.06;100.00
29815;BME280;16708;50.426;7.664;2023-04-02T19:55:21;996.82;;;4.00;100.00
29815;BME280;16708;50.426;7.664;2023-04-02T20:00:13;996.90;;;3.97;100.00
29815;BME280;16708;50.426;7.664;2023-04-02T20:05:07;996.98;;;3.98;100.00
29815;BME280;16708;50.426;7.664;2023-04-02T20:10:01;997.10;;;3.98;100.00
29815;BME280;16708;50.426;7.664;2023-04-02T20:14:55;997.08;;;4.05;100.00
29815;BME280;16708;50.426;7.664;2023-04-02T20:19:47;997.25;;;4.04;100.00
29815;BME280;16708;50.426;7.664;2023-04-02T20:24:41;997.32;;;4.02;100.00
29815;BME280;16708;50.426;7.664;2023-04-02T20:29:35;997.31;;;3.91;100.00
29815;BME280;16708;50.426;7.664;2023-04-02T20:34:29;997.33;;;3.76;100.00
29815;BME280;16708;50.426;7.664;2023-04-02T20:39:23;997.42;;;3.73;100.00
29815;BME280;16708;50.426;7.664;2023-04-02T20:44:17;997.42;;;3.57;100.00
29815;BME280;16708;50.426;7.664;2023-04-02T20:49:11;997.35;;;3.52;100.00
29815;BME280;16708;50.426;7.664;2023-04-02T20:54:05;997.51;;;3.36;100.00
29815;BME280;16708;50.426;7.664;2023-04-02T20:58:59;997.55;;;3.14;100.00
29815;BME280;16708;50.426;7.664;2023-04-02T21:03:53;997.65;;;2.99;100.00
29815;BME280;16708;50.426;7.664;2023-04-02T21:08:47;997.68;;;2.82;100.00
29815;BME280;16708;50.426;7.664;2023-04-02T21:13:41;997.76;;;2.64;100.00
29815;BME280;16708;50.426;7.664;2023-04-02T21:18:35;997.79;;;2.49;100.00
29815;BME280;16708;50.426;7.664;2023-04-02T21:23:29;997.77;;;2.39;100.00
29815;BME280;16708;50.426;7.664;2023-04-02T21:28:26;997.80;;;2.21;100.00
29815;BME280;16708;50.426;7.664;2023-04-02T21:33:15;997.75;;;2.16;100.00
29815;BME280;16708;50.426;7.664;2023-04-02T21:38:09;997.82;;;2.04;100.00
29815;BME280;16708;50.426;7.664;2023-04-02T21:43:03;997.80;;;2.01;100.00
29815;BME280;16708;50.426;7.664;2023-04-02T21:47:57;997.87;;;2.03;100.00
29815;BME280;16708;50.426;7.664;2023-04-02T21:52:51;997.73;;;1.96;100.00
29815;BME280;16708;50.426;7.664;2023-04-02T21:57:45;997.74;;;1.91;100.00
29815;BME280;16708;50.426;7.664;2023-04-02T22:02:40;997.73;;;1.85;100.00
29815;BME280;16708;50.426;7.664;2023-04-02T22:07:34;997.69;;;1.81;100.00
29815;BME280;16708;50.426;7.664;2023-04-02T22:12:28;997.69;;;1.78;100.00
29815;BME280;16708;50.426;7.664;2023-04-02T22:17:22;997.73;;;1.71;100.00
29815;BME280;16708;50.426;7.664;2023-04-02T22:22:16;997.77;;;1.68;100.00
29815;BME280;16708;50.426;7.664;2023-04-02T22:27:10;997.72;;;1.57;100.00
29815;BME280;16708;50.426;7.664;2023-04-02T22:32:04;997.74;;;1.38;100.00
29815;BME280;16708;50.426;7.664;2023-04-02T22:37:00;997.78;;;1.27;100.00
29815;BME280;16708;50.426;7.664;2023-04-02T22:41:53;997.85;;;1.28;100.00
29815;BME280;16708;50.426;7.664;2023-04-02T22:46:46;997.85;;;1.22;100.00
29815;BME280;16708;50.426;7.664;2023-04-02T22:51:41;997.87;;;1.15;100.00
29815;BME280;16708;50.426;7.664;2023-04-02T22:56:35;997.90;;;1.05;100.00
29815;BME280;16708;50.426;7.664;2023-04-02T23:01:29;997.90;;;1.22;100.00
29815;BME280;16708;50.426;7.664;2023-04-02T23:06:23;997.97;;;1.26;100.00
29815;BME280;16708;50.426;7.664;2023-04-02T23:11:16;997.97;;;1.25;100.00
29815;BME280;16708;50.426;7.664;2023-04-02T23:16:13;998.00;;;1.39;100.00
29815;BME280;16708;50.426;7.664;2023-04-02T23:21:05;997.99;;;1.53;100.00
29815;BME280;16708;50.426;7.664;2023-04-02T23:25:59;998.04;;;1.59;100.00
29815;BME280;16708;50.426;7.664;2023-04-02T23:30:53;998.05;;;1.63;100.00
29815;BME280;16708;50.426;7.664;2023-04-02T23:35:47;998.15;;;1.63;100.00
29815;BME280;16708;50.426;7.664;2023-04-02T23:40:41;998.24;;;1.68;100.00
29815;BME280;16708;50.426;7.664;2023-04-02T23:45:36;998.19;;;1.67;100.00
29815;BME280;16708;50.426;7.664;2023-04-02T23:50:30;998.21;;;1.71;100.00
29815;BME280;16708;50.426;7.664;2023-04-02T23:55:24;998.16;;;1.74;100.00
